Temecula, CA (92591)

7:50 PM PDT on October 01, 2014 (GMT -0700)
Roripaugh Hills | Change Station
CLOSE
Current Station
Personal Weather Station
Location: Temecula, CA
Elevation: 1149 ft
Nearby Weather Stations
Active Advisory: Wind Advisory, Heat Advisory

Elev 1149 ft 33.53 °N, 117.14 °W | Updated 3 minutes ago

Clear
Clear
70.3 °F
Feels Like 74 °F
N
0.0
Wind Variable Wind from SW
Gusts 5.0 mph

Today
High -- | Low -- °F
--% Chance of Precip.
Yesterday
High -- | Low -- °F
Precip. -- in
6:42 AM 6:32 PM
First Quarter, 53% visible
Pressure 29.80 in
Visibility 10.0 miles
Clouds Clear
Heat Index 74 °F
Dew Point 59 °F
Humidity 68%
Rainfall 0.00 in
Snow Depth 0 in , 0 in , 0 in
UV 0.0 out of 12
Pollen 5.40 out of 12
Ozone Good
PM2.5 Moderate
Flu Activity Not available.
METAR KRIV 020158Z AUTO 30014KT 10SM CLR 25/14 A2983 RMK AO2 SLP091 T02480138

More Conditions Fewer Conditions

Pressure 29.80 in
Visibility 10.0 miles
Clouds Clear
Heat Index 74 °F
Dew Point 59 °F
Humidity 68%
Rainfall 0.00 in
Snow Depth 0 in , 0 in , 0 in
UV 0.0 out of 12
Pollen 5.40 out of 12
Ozone Good
PM2.5 Moderate
Flu Activity Not available.
METAR KRIV 020158Z AUTO 30014KT 10SM CLR 25/14 A2983 RMK AO2 SLP091 T02480138

More Conditions Fewer Conditions

10-Day Weather Forecast

Almanac

Astronomy

Oct. 01, 2014 Rise Set
Actual Time 6:42 AM PDT 6:32 PM PDT
Civil Twilight 6:18 AM PDT 6:57 PM PDT
Nautical Twilight 5:49 AM PDT 7:26 PM PDT
Astronomical Twilight 5:20 AM PDT 7:55 PM PDT
Moon 1:35 PM PDT (10/1) No Moon Set
Length of Visible Light 12h 39m
Length of Day
11h 49m
Tomorrow will be 2m 3s shorter.
First Quarter, 53% of the Moon is Illuminated
Today
First Quarter
Oct 8
Full
Oct 15
Last Quarter
Oct 23
New
Oct 30
First Quarter

Today's Extremes

State Highs State Lows

Community

WunderPhotos

Upload Photos

1,758,154 photos uploaded!

WunderBlogs® & News

Nearby

Air Quality

  Air Quality AQ Index Pollutant
Yesterday Moderate
OZONE
Yesterday Moderate
PM2.5
Current Moderate
PM2.5
Current Good
OZONE
Thursday Moderate
OZONE
Thursday Good
PM10
Thursday Good
CO
Thursday Good
NO2

Snow Depth

Station Depth Elevation
Spratt Creek 0 in 6200 ft
Blue Lakes 0 in 8000 ft
Adin Mountain 0 in 6200 ft
Hagan's Meadow 0 in 8000 ft
Heavenly Valley 0 in 8850 ft

Earthquake Activity

City Distance Mag. Time & Date
Avalon, California 74 miles 2.6 1:28 PM PDT
2014-09-30
Minimum magnitude displayed is 2.5.

Coastal Water Temperatures

Place Temperature
La Jolla, CA 73.0 °F
San Diego, CA 73.9 °F

Nearby Weather Stations